Time;durP1;ratioP1;P1;durP2;ratioP2;P2;SDS_P1;SDS_P2;PMS_P1;PMS_P2;Temp;Humidity;BMP_temperature;BMP_pressure;BME280_temperature;BME280_humidity;BME280_pressure;Samples;Min_cycle;Max_cycle;Signal;HPM_P1;HPM_P2
2022/02/03 00:02:39;;;;;;;26.77;2.42;;;1.90;99.90;;;0.25;100.00;101270.06;4909961;28;20117;-77
2022/02/03 00:05:16;;;;;;;27.05;3.60;;;1.90;99.90;;;0.29;100.00;101279.56;4937034;28;20049;-75
2022/02/03 00:10:44;;;;;;;29.13;2.92;;;1.90;99.90;;;0.35;100.00;101269.25;4934419;28;20085;-76
2022/02/03 00:24:39;;;;;;;24.60;3.00;;;2.20;99.90;;;0.60;100.00;101278.84;4959106;28;20041;-76
2022/02/03 00:27:43;;;;;;;31.77;2.83;;;2.20;99.90;;;0.66;100.00;101283.16;4917341;28;20102;-76
2022/02/03 00:30:14;;;;;;;28.27;2.35;;;2.20;99.90;;;0.70;100.00;101269.34;4943152;28;20026;-76
2022/02/03 00:35:33;;;;;;;29.73;2.25;;;2.30;99.90;;;0.78;100.00;101279.75;4952840;28;20107;-76
2022/02/03 00:38:19;;;;;;;29.90;2.80;;;2.40;99.90;;;0.80;100.00;101271.13;4906472;28;20450;-77
2022/02/03 00:49:19;;;;;;;29.83;2.60;;;2.50;99.90;;;0.93;100.00;101290.16;4948085;28;20443;-76
2022/02/03 00:51:49;;;;;;;31.73;4.05;;;2.50;99.90;;;0.96;100.00;101292.75;4919498;28;20098;-76
2022/02/03 00:54:20;;;;;;;40.88;3.80;;;2.50;99.90;;;0.97;100.00;101284.13;4925796;28;20027;-76
2022/02/03 00:57:16;;;;;;;25.95;3.28;;;2.60;99.90;;;1.01;100.00;101295.34;4939652;28;20023;-76
2022/02/03 01:00:13;;;;;;;26.85;3.17;;;2.60;99.90;;;0.98;100.00;101291.00;4916547;28;20098;-76
2022/02/03 01:02:51;;;;;;;39.47;3.08;;;2.60;99.90;;;1.01;100.00;101301.38;4961523;28;20107;-77
2022/02/03 01:05:19;;;;;;;49.13;3.35;;;2.60;99.90;;;1.01;100.00;101270.25;4944513;28;20030;-77
2022/02/03 01:07:49;;;;;;;35.15;3.30;;;2.60;99.90;;;1.01;100.00;101291.00;4951918;28;20178;-77
2022/02/03 01:10:23;;;;;;;27.40;2.85;;;2.70;99.90;;;1.02;100.00;101266.81;4931427;28;20027;-76
2022/02/03 01:13:10;;;;;;;30.60;3.13;;;2.70;99.90;;;1.06;100.00;101287.56;4960005;28;20081;-76
2022/02/03 01:15:51;;;;;;;32.53;2.95;;;2.70;99.90;;;1.08;100.00;101285.84;4962944;28;20035;-76
2022/02/03 01:37:20;;;;;;;31.65;2.58;;;2.80;99.90;;;1.18;100.00;101277.22;4942720;28;20729;-76
2022/02/03 01:45:49;;;;;;;32.85;3.15;;;2.80;99.90;;;1.19;100.00;101263.41;4942855;28;22618;-76
2022/02/03 01:53:46;;;;;;;30.10;2.88;;;2.80;99.90;;;1.19;100.00;101242.66;4905734;28;20297;-76
2022/02/03 01:56:19;;;;;;;29.60;3.20;;;2.80;99.90;;;1.21;100.00;101246.09;4914401;28;20030;-76
2022/02/03 01:58:48;;;;;;;34.40;3.45;;;2.80;99.90;;;1.21;100.00;101241.78;4942173;28;20403;-75
2022/02/03 02:01:34;;;;;;;30.20;3.53;;;2.80;99.90;;;1.23;100.00;101234.84;4919707;28;20117;-76
2022/02/03 02:04:34;;;;;;;36.80;2.95;;;2.80;99.90;;;1.25;100.00;101241.75;4918678;28;20498;-76
2022/02/03 02:07:45;;;;;;;25.58;2.92;;;2.90;99.90;;;1.24;100.00;101222.75;4935629;28;20395;-76
2022/02/03 02:12:59;;;;;;;;;;;2.90;99.90;;;1.20;100.00;101208.91;4988969;28;20054;-76
2022/02/03 02:38:13;;;;;;;29.30;2.90;;;3.10;99.90;;;1.56;100.00;101216.66;4938919;28;20811;-76
2022/02/03 02:44:38;;;;;;;38.83;3.38;;;3.20;99.90;;;1.60;100.00;101213.19;4917949;28;20035;-76
2022/02/03 02:47:46;;;;;;;40.50;3.72;;;3.20;99.90;;;1.64;100.00;101184.63;4946376;28;20123;-76
2022/02/03 02:50:26;;;;;;;29.80;3.50;;;3.30;99.90;;;1.69;100.00;101217.50;4917502;28;20031;-76
2022/02/03 03:29:03;;;;;;;33.30;3.38;;;3.40;99.90;;;1.75;100.00;101213.16;4967426;28;20056;-76
2022/02/03 03:37:30;;;;;;;44.45;3.22;;;3.60;99.90;;;2.13;100.00;101201.75;4935368;28;20053;-77
2022/02/03 03:40:02;;;;;;;44.80;3.47;;;3.70;99.90;;;2.18;100.00;101207.81;4939208;28;20049;-77
2022/02/03 03:42:34;;;;;;;40.25;3.95;;;3.70;99.90;;;2.17;100.00;101208.69;4941955;28;20019;-76
2022/02/03 03:45:06;;;;;;;43.75;3.97;;;3.70;99.90;;;2.20;100.00;101206.09;4921428;28;20550;-77
2022/02/03 03:47:37;;;;;;;46.47;3.63;;;3.70;99.90;;;2.21;100.00;101202.59;4920865;28;20131;-77
2022/02/03 03:50:19;;;;;;;41.08;3.65;;;3.80;99.90;;;2.26;100.00;101212.97;4947711;23;20625;-77
2022/02/03 03:53:02;;;;;;;39.85;3.80;;;3.80;99.90;;;2.29;100.00;101214.69;4938546;28;20704;-78
2022/02/03 04:44:12;;;;;;;40.53;3.65;;;4.10;99.90;;;2.62;100.00;101204.13;4974950;28;20034;-79
2022/02/03 04:51:02;;;;;;;30.33;2.53;;;4.20;99.90;;;2.61;100.00;101188.50;4968498;28;20037;-79
2022/02/03 05:00:56;;;;;;;35.67;3.72;;;4.20;99.90;;;2.66;100.00;101204.97;4976207;28;20065;-79
2022/02/03 05:06:54;;;;;;;33.22;3.28;;;4.20;99.90;;;2.71;100.00;101200.59;4975503;28;20136;-79
2022/02/03 05:10:09;;;;;;;40.58;2.90;;;4.20;99.90;;;2.72;100.00;101198.84;4985584;28;20033;-79
2022/02/03 05:17:00;;;;;;;30.58;3.40;;;4.30;99.90;;;2.77;100.00;101184.09;4972950;28;20110;-79
2022/02/03 05:25:58;;;;;;;44.63;3.47;;;4.40;99.90;;;2.85;100.00;101187.47;4986464;28;20615;-78
2022/02/03 05:42:50;;;;;;;24.05;2.97;;;4.40;99.90;;;2.87;100.00;101188.34;5014290;28;20080;-78
2022/02/03 06:02:21;;;;;;;36.50;3.63;;;4.50;99.90;;;2.92;100.00;101170.13;4975643;28;20521;-78
2022/02/03 06:07:41;;;;;;;35.35;4.30;;;4.40;99.90;;;2.86;100.00;101160.63;4949954;28;20026;-79
2022/02/03 06:24:18;;;;;;;34.58;3.80;;;4.20;99.90;;;2.67;100.00;101155.53;4909116;28;20127;-78
2022/02/03 06:29:34;;;;;;;26.58;2.80;;;4.20;99.90;;;2.62;100.00;101172.06;4973442;28;20044;-78
2022/02/03 06:31:59;;;;;;;29.73;3.25;;;4.10;99.90;;;2.57;100.00;101166.91;4977582;28;20029;-78
2022/02/03 06:34:26;;;;;;;37.10;3.65;;;4.10;99.90;;;2.51;100.00;101159.13;4970933;28;20036;-78
2022/02/03 06:36:54;;;;;;;37.53;4.45;;;4.10;99.90;;;2.47;100.00;101162.63;4968847;28;22061;-79
2022/02/03 06:39:26;;;;;;;34.45;3.75;;;4.00;99.90;;;2.45;100.00;101149.63;4958151;28;20110;-79
2022/02/03 06:41:56;;;;;;;31.48;3.10;;;4.00;99.90;;;2.43;100.00;101166.97;4978830;28;20501;-78
2022/02/03 06:44:34;;;;;;;35.30;3.33;;;4.00;99.90;;;2.42;100.00;101161.78;4963108;28;20125;-79
2022/02/03 06:47:11;;;;;;;31.52;3.08;;;4.00;99.90;;;2.44;100.00;101158.31;4957580;28;20053;-79
2022/02/03 06:49:49;;;;;;;33.67;3.47;;;4.00;99.90;;;2.46;100.00;101153.06;4964713;28;20363;-79
2022/02/03 06:52:31;;;;;;;43.90;3.88;;;4.00;99.90;;;2.48;100.00;101156.53;4981922;28;20081;-79
2022/02/03 06:55:07;;;;;;;23.98;2.60;;;4.00;99.90;;;2.49;100.00;101158.28;4974669;28;20404;-79
2022/02/03 06:57:41;;;;;;;46.95;4.22;;;4.00;99.90;;;2.47;100.00;101152.22;4977058;28;20041;-79
2022/02/03 07:00:17;;;;;;;28.98;4.05;;;4.00;99.90;;;2.47;100.00;101147.03;4974800;28;20101;-79
2022/02/03 07:02:45;;;;;;;38.33;3.50;;;4.00;99.90;;;2.46;100.00;101140.09;4965500;28;20438;-78
2022/02/03 07:05:11;;;;;;;50.00;4.28;;;4.00;99.90;;;2.44;100.00;101131.44;4983391;28;20044;-79
2022/02/03 07:07:40;;;;;;;44.55;5.07;;;3.90;99.90;;;2.42;100.00;101138.41;4990793;28;20030;-79
2022/02/03 07:10:09;;;;;;;38.88;3.83;;;3.90;99.90;;;2.43;100.00;101134.91;4986173;28;20034;-79
2022/02/03 07:12:35;;;;;;;42.22;3.60;;;3.90;99.90;;;2.44;100.00;101123.63;4993092;28;20746;-79
2022/02/03 07:15:04;;;;;;;28.17;3.05;;;3.90;99.90;;;2.42;100.00;101122.81;4981162;28;20117;-79
2022/02/03 07:17:32;;;;;;;29.85;3.42;;;3.90;99.90;;;2.43;100.00;101121.91;4975279;28;20026;-79
2022/02/03 07:20:02;;;;;;;27.67;2.88;;;3.90;99.90;;;2.45;100.00;101134.03;4964750;28;20342;-79
2022/02/03 07:22:29;;;;;;;40.05;3.67;;;3.90;99.90;;;2.47;100.00;101131.44;4937206;28;20445;-79
2022/02/03 07:24:59;;;;;;;35.67;3.22;;;3.90;99.90;;;2.49;100.00;101129.69;4959864;28;20197;-79
2022/02/03 07:27:26;;;;;;;38.25;3.88;;;3.90;99.90;;;2.45;100.00;101131.44;4972141;28;20014;-79
2022/02/03 07:29:53;;;;;;;31.02;2.95;;;3.90;99.90;;;2.43;100.00;101130.56;4973298;28;20017;-78
2022/02/03 07:32:22;;;;;;;42.17;4.70;;;3.90;99.90;;;2.42;100.00;101143.59;4961411;28;20529;-78
2022/02/03 07:34:55;;;;;;;38.00;4.45;;;3.90;99.90;;;2.44;100.00;101140.13;4946687;28;20037;-79
2022/02/03 07:37:24;;;;;;;52.63;5.18;;;4.00;99.90;;;2.47;100.00;101136.63;4963654;28;20026;-79
2022/02/03 07:39:53;;;;;;;49.00;6.32;;;4.00;99.90;;;2.51;100.00;101130.53;4982638;28;20018;-79
2022/02/03 07:42:19;;;;;;;44.33;5.75;;;4.00;99.90;;;2.56;100.00;101130.50;4938801;28;20172;-79
2022/02/03 07:44:45;;;;;;;57.88;6.82;;;4.00;99.90;;;2.60;100.00;101121.81;4980982;28;20096;-79
2022/02/03 07:47:11;;;;;;;46.97;6.80;;;4.10;99.90;;;2.70;100.00;101123.47;4930735;28;20068;-78
2022/02/03 07:49:38;;;;;;;39.08;4.47;;;4.10;99.90;;;2.74;100.00;101124.28;4959453;28;20042;-78
2022/02/03 07:52:06;;;;;;;41.65;4.22;;;4.20;99.90;;;2.80;100.00;101119.03;4954802;28;20413;-79
2022/02/03 07:54:36;;;;;;;33.13;3.70;;;4.20;99.90;;;2.82;100.00;101127.69;4953216;28;20026;-79
2022/02/03 07:57:03;;;;;;;42.95;3.72;;;4.30;99.90;;;2.84;100.00;101116.41;4973537;28;20085;-78
2022/02/03 07:59:29;;;;;;;46.10;4.10;;;4.30;99.90;;;2.88;100.00;101114.66;4983918;28;20026;-78
2022/02/03 08:01:56;;;;;;;37.92;4.20;;;4.30;99.90;;;2.89;100.00;101111.16;4955667;28;20119;-79
2022/02/03 08:04:27;;;;;;;34.42;4.57;;;4.30;99.90;;;2.92;100.00;101121.53;5000969;28;20038;-79
2022/02/03 08:06:53;;;;;;;40.97;3.67;;;4.40;99.90;;;2.97;100.00;101126.72;4982277;28;20038;-79
2022/02/03 08:09:26;;;;;;;42.97;4.57;;;4.40;99.90;;;3.02;100.00;101122.31;4964118;28;20550;-78
2022/02/03 08:11:55;;;;;;;43.05;4.45;;;4.50;99.90;;;3.09;100.00;101121.41;4975423;28;20714;-78
2022/02/03 08:14:36;;;;;;;45.60;4.68;;;4.50;99.90;;;3.13;100.00;101120.47;4970128;28;20037;-79
2022/02/03 08:17:19;;;;;;;33.00;3.95;;;4.60;99.90;;;3.21;100.00;101110.00;4943957;28;20452;-79
2022/02/03 08:19:56;;;;;;;46.60;4.63;;;4.60;99.90;;;3.25;100.00;101103.88;4927829;28;20045;-78
2022/02/03 08:22:27;;;;;;;33.97;4.55;;;4.70;99.90;;;3.33;100.00;101114.22;4970506;28;20045;-78
2022/02/03 08:25:06;;;;;;;40.55;5.45;;;4.70;99.90;;;3.39;100.00;101109.81;4963886;28;20034;-79
2022/02/03 08:32:33;;;;;;;35.70;5.53;;;4.90;99.90;;;3.57;100.00;101102.69;4971810;28;20034;-79
2022/02/03 08:38:18;;;;;;;29.70;3.83;;;5.00;99.90;;;3.71;100.00;101100.75;4955282;28;20026;-79
2022/02/03 08:40:29;;;;;;;29.40;3.88;;;5.00;99.90;;;3.74;100.00;101092.03;4951317;28;20030;-78
2022/02/03 08:42:56;;;;;;;32.70;4.13;;;5.10;99.90;;;3.76;100.00;101078.13;4940072;28;20036;-78
2022/02/03 08:45:22;;;;;;;38.95;4.45;;;5.10;99.90;;;3.79;100.00;101075.47;4978897;28;20090;-79
2022/02/03 08:47:48;;;;;;;33.08;3.80;;;5.20;99.90;;;3.79;100.00;101077.22;4955271;28;20042;-79
2022/02/03 08:50:14;;;;;;;31.90;3.90;;;5.20;99.90;;;3.86;100.00;101077.09;4988858;28;20049;-79
2022/02/03 08:53:30;;;;;;;34.47;4.22;;;5.20;99.90;;;3.86;100.00;101077.09;4967186;28;20084;-79
2022/02/03 08:56:00;;;;;;;30.80;3.97;;;5.20;99.90;;;3.81;100.00;101071.09;4970035;28;20030;-79
2022/02/03 09:39:06;;;;;;;32.40;4.65;;;5.70;99.90;;;4.28;100.00;101056.53;4970367;28;20088;-79
2022/02/03 10:00:45;;;;;;;35.78;6.47;;;6.00;99.90;;;4.53;100.00;101035.28;4982251;28;20064;-78
2022/02/03 10:03:20;;;;;;;50.30;8.07;;;5.90;99.90;;;4.55;100.00;101025.69;4982796;28;20065;-78
2022/02/03 10:06:09;;;;;;;36.85;7.60;;;6.00;99.90;;;4.57;100.00;101030.88;4973206;28;20050;-78
2022/02/03 10:08:43;;;;;;;49.20;8.45;;;6.00;99.90;;;4.59;100.00;101027.38;4946996;28;20480;-81
2022/02/03 10:11:40;;;;;;;37.80;7.28;;;6.10;99.90;;;4.66;100.00;101008.09;4940707;28;20031;-88
2022/02/03 10:14:06;;;;;;;42.35;8.52;;;6.10;99.90;;;4.68;100.00;101011.53;4885831;28;21348;-82
2022/02/03 10:16:36;;;;;;;38.67;8.77;;;6.20;99.90;;;4.79;100.00;101010.50;4932665;28;20508;-78
2022/02/03 10:19:14;;;;;;;54.42;9.30;;;6.20;99.90;;;4.83;100.00;101007.81;4978575;28;20037;-79
2022/02/03 10:21:43;;;;;;;40.97;9.13;;;6.30;99.90;;;4.96;100.00;101011.03;4971227;28;20032;-79
2022/02/03 10:24:16;;;;;;;43.78;9.80;;;6.40;99.90;;;5.03;100.00;101009.19;4982349;28;20030;-79
2022/02/03 10:26:50;;;;;;;49.90;9.57;;;6.40;99.90;;;5.08;100.00;101028.25;4989492;28;20124;-79
2022/02/03 10:29:25;;;;;;;40.78;9.70;;;6.50;99.90;;;5.10;100.00;101022.09;4957151;28;20561;-80
2022/02/03 10:31:51;;;;;;;44.40;9.97;;;6.50;99.90;;;5.22;100.00;101017.53;4971000;28;20096;-79
2022/02/03 10:34:33;;;;;;;48.78;10.10;;;6.60;99.90;;;5.33;100.00;101000.75;4960438;28;20276;-79
2022/02/03 10:51:33;;;;;;;50.28;12.57;;;6.70;99.90;;;5.21;100.00;100967.06;4910517;28;20104;-79
2022/02/03 10:54:22;;;;;;;53.60;13.30;;;6.70;99.90;;;5.26;100.00;100957.38;4973748;28;21176;-79
2022/02/03 11:08:12;;;;;;;49.78;12.65;;;6.70;99.90;;;5.24;100.00;100929.59;4963222;28;20044;-79
2022/02/03 11:10:44;;;;;;;47.38;11.98;;;6.70;99.90;;;5.24;100.00;100864.31;4955102;28;20096;-79
2022/02/03 11:13:13;;;;;;;60.75;10.93;;;6.70;99.90;;;5.24;100.00;100960.91;4918724;28;20100;-79
2022/02/03 11:15:43;;;;;;;50.85;12.38;;;6.70;99.90;;;5.19;100.00;100887.06;4947752;28;20593;-79
2022/02/03 11:18:12;;;;;;;53.95;11.82;;;6.70;99.90;;;5.20;100.00;100998.41;4987453;28;20029;-79
2022/02/03 11:20:45;;;;;;;42.25;10.63;;;6.70;99.90;;;5.17;100.00;100996.72;4947484;28;20144;-84
2022/02/03 11:32:07;;;;;;;41.88;10.25;;;6.60;99.90;;;5.01;100.00;100961.38;4887886;28;20066;-87
2022/02/03 11:38:34;;;;;;;;;;;6.60;99.90;;;4.96;100.00;100951.03;4917343;28;20512;-86
2022/02/03 11:45:26;;;;;;;38.20;8.52;;;6.50;99.90;;;4.93;100.00;100945.88;4903358;28;20066;-86
2022/02/03 11:57:35;;;;;;;33.63;8.68;;;6.40;99.90;;;4.87;100.00;100933.81;4905168;28;20045;-89
2022/02/03 12:03:13;;;;;;;26.10;8.15;;;6.40;99.90;;;4.95;100.00;100923.22;4943427;28;20109;-86
2022/02/03 12:06:29;;;;;;;32.40;9.27;;;6.40;99.90;;;4.98;100.00;100912.72;4932505;23;20132;-88
2022/02/03 12:21:03;;;;;;;28.80;7.63;;;;;;;5.08;100.00;100893.38;4893811;28;20106;-85
2022/02/03 12:24:11;;;;;;;28.67;7.95;;;6.50;99.90;;;5.06;100.00;100878.63;4884669;28;20037;-85
2022/02/03 12:27:19;;;;;;;32.53;8.07;;;6.50;99.90;;;5.07;100.00;100881.19;4882403;28;20057;-84
2022/02/03 12:29:56;;;;;;;24.50;8.00;;;6.60;99.90;;;5.09;100.00;100879.41;4914587;28;20073;-79
2022/02/03 12:33:03;;;;;;;22.40;7.25;;;6.50;99.90;;;5.12;100.00;100873.28;4984425;28;20026;-80
2022/02/03 12:38:27;;;;;;;;;;;6.60;99.90;;;5.08;100.00;100853.38;4960496;28;20046;-80
2022/02/03 12:40:59;;;;;;;26.83;7.82;;;6.60;99.90;;;5.10;100.00;100856.81;4972422;28;20790;-80
2022/02/03 12:43:32;;;;;;;25.60;7.60;;;6.60;99.90;;;5.07;100.00;100842.03;4918034;28;20037;-79
2022/02/03 12:46:04;;;;;;;29.13;7.28;;;6.60;99.90;;;5.10;100.00;100839.38;4967224;28;20058;-79
2022/02/03 12:48:37;;;;;;;23.73;7.72;;;6.60;99.90;;;5.19;100.00;100843.53;4967807;28;20096;-79
2022/02/03 12:51:08;;;;;;;28.10;7.97;;;6.70;99.90;;;5.20;100.00;100845.25;4947076;28;20057;-80
2022/02/03 12:53:41;;;;;;;27.15;8.30;;;6.60;99.90;;;5.19;100.00;100838.31;4965720;28;20056;-79
2022/02/03 12:56:13;;;;;;;25.40;8.68;;;6.70;99.90;;;5.22;100.00;100835.63;4934962;28;20101;-81
2022/02/03 12:58:45;;;;;;;20.15;7.57;;;6.70;99.90;;;5.26;100.00;100831.19;4949365;28;20038;-79
2022/02/03 13:01:18;;;;;;;22.50;8.65;;;6.70;99.90;;;5.26;100.00;100825.97;4968082;28;20031;-79
2022/02/03 13:04:10;;;;;;;27.70;8.85;;;6.70;99.90;;;5.29;100.00;100818.06;4948857;28;20380;-85
2022/02/03 13:06:39;;;;;;;22.80;8.52;;;6.70;99.90;;;5.27;100.00;100819.84;4966177;28;20105;-78
2022/02/03 13:09:12;;;;;;;21.20;8.70;;;6.70;99.90;;;5.30;100.00;100819.78;4939847;28;20053;-78
2022/02/03 13:12:05;;;;;;;27.80;8.43;;;6.80;99.90;;;5.26;100.00;100811.16;4925426;28;20033;-85
2022/02/03 13:14:39;;;;;;;21.88;8.93;;;6.80;99.90;;;5.31;100.00;100821.50;4955995;28;20112;-79
2022/02/03 13:17:27;;;;;;;23.27;8.43;;;6.80;99.90;;;5.29;100.00;100810.22;4934935;28;20030;-89
2022/02/03 13:20:49;;;;;;;25.27;9.52;;;6.80;99.90;;;5.28;100.00;100800.69;4870587;28;20070;-88
2022/02/03 13:23:29;;;;;;;37.10;9.35;;;6.80;99.90;;;5.34;100.00;100811.00;4820570;29;20033;-86
2022/02/03 13:26:11;;;;;;;23.02;8.98;;;6.80;99.90;;;5.36;100.00;100762.22;4816357;29;20410;-88
2022/02/03 13:29:06;;;;;;;21.50;8.23;;;6.80;99.90;;;5.34;100.00;100805.78;4816924;29;20033;-87
2022/02/03 13:32:21;;;;;;;16.98;7.57;;;6.80;99.90;;;5.38;100.00;100801.31;4797774;28;20036;-87
2022/02/03 13:34:51;;;;;;;16.85;7.13;;;6.80;99.90;;;5.43;100.00;100804.69;4920398;28;20033;-80
2022/02/03 13:37:29;;;;;;;18.70;7.10;;;6.80;99.90;;;5.37;100.00;100776.97;4963115;28;20042;-79
2022/02/03 13:40:12;;;;;;;12.82;7.20;;;6.80;99.90;;;5.35;100.00;100773.53;4971195;28;20030;-79
2022/02/03 13:42:45;;;;;;;17.63;7.40;;;6.90;99.90;;;5.38;100.00;100776.09;4937313;28;21031;-79
2022/02/03 13:45:15;;;;;;;12.40;7.00;;;6.90;99.90;;;5.44;100.00;100782.91;4953780;28;20050;-79
2022/02/03 13:47:43;;;;;;;12.88;7.10;;;6.90;99.90;;;5.43;100.00;100771.59;4943235;28;20030;-79
2022/02/03 13:50:22;;;;;;;14.25;6.97;;;6.90;99.90;;;5.42;100.00;100772.50;4973959;28;20030;-79
2022/02/03 13:52:56;;;;;;;13.00;6.70;;;6.90;99.90;;;5.46;100.00;100778.50;4953501;28;20495;-79
2022/02/03 14:15:12;;;;;;;11.00;6.60;;;7.00;99.90;;;5.55;100.00;100763.47;4985135;28;20406;-79
2022/02/03 14:23:10;;;;;;;12.10;7.20;;;7.00;99.90;;;5.59;100.00;100759.00;4952787;28;20061;-80
2022/02/03 14:28:22;;;;;;;12.25;6.65;;;7.00;99.90;;;5.59;100.00;100750.31;4954334;28;20439;-79
2022/02/03 14:30:53;;;;;;;12.55;6.55;;;7.00;99.90;;;5.61;100.00;100748.53;4970312;28;20551;-80
2022/02/03 14:33:27;;;;;;;14.02;6.93;;;7.10;99.90;;;5.63;100.00;100750.19;4970064;28;20037;-81
2022/02/03 14:35:59;;;;;;;11.30;6.65;;;7.10;99.90;;;5.64;100.00;100741.47;4957067;28;20030;-80
2022/02/03 14:38:27;;;;;;;12.00;6.35;;;7.10;99.90;;;5.65;100.00;100742.31;4947832;28;20030;-80
2022/02/03 14:41:00;;;;;;;9.98;5.90;;;7.10;99.90;;;5.68;100.00;100739.63;4974218;28;20026;-80
2022/02/03 14:43:29;;;;;;;13.30;6.82;;;7.10;99.90;;;5.71;100.00;100732.56;4950534;28;20042;-80
2022/02/03 14:45:57;;;;;;;17.80;9.13;;;7.10;99.90;;;5.70;100.00;100725.66;4936863;28;20064;-80
2022/02/03 14:48:26;;;;;;;22.17;12.48;;;7.10;99.90;;;5.71;100.00;100723.88;4975760;28;20026;-81
2022/02/03 14:50:55;;;;;;;15.23;9.10;;;7.20;99.90;;;5.73;100.00;100727.31;4964292;28;20157;-80
2022/02/03 14:53:32;;;;;;;19.73;11.50;;;7.20;99.90;;;5.72;100.00;100723.84;4972855;28;20030;-80
2022/02/03 14:58:42;;;;;;;23.27;14.77;;;7.20;99.90;;;5.76;100.00;100724.59;4952650;28;20081;-80
2022/02/03 15:01:13;;;;;;;26.48;16.85;;;7.20;99.90;;;5.78;100.00;100714.13;4906935;28;20034;-79
2022/02/03 15:03:39;;;;;;;26.77;14.48;;;7.20;99.90;;;5.78;100.00;100717.59;4954819;28;22677;-80
2022/02/03 15:06:11;;;;;;;15.60;8.40;;;7.20;99.90;;;5.77;100.00;100713.28;4924232;28;20038;-80
2022/02/03 15:11:14;;;;;;;20.05;11.25;;;7.30;99.90;;;5.82;100.00;100708.78;4949163;28;20075;-79
2022/02/03 15:13:48;;;;;;;27.98;14.60;;;7.30;99.90;;;5.84;100.00;100711.34;4909014;28;20101;-86
2022/02/03 15:16:35;;;;;;;14.82;8.93;;;7.30;99.90;;;5.81;100.00;100706.19;4885177;28;20142;-87
2022/02/03 15:19:09;;;;;;;29.17;16.60;;;7.30;99.90;;;5.83;100.00;100689.59;4886016;28;20023;-87
2022/02/03 15:21:35;;;;;;;35.28;20.95;;;7.30;99.90;;;5.82;100.00;100702.69;4899687;28;20033;-87
2022/02/03 15:24:01;;;;;;;25.50;14.52;;;7.30;99.90;;;5.85;100.00;100703.47;4871695;28;20035;-88
2022/02/03 15:26:33;;;;;;;16.67;8.27;;;7.30;99.90;;;5.88;100.00;100692.06;4869624;28;20126;-86
2022/02/03 15:29:02;;;;;;;16.42;8.60;;;7.30;99.90;;;5.89;100.00;100692.00;4915298;28;20139;-87
2022/02/03 15:31:31;;;;;;;13.70;8.10;;;7.70;99.90;;;5.89;100.00;100689.41;4905976;28;20144;-85
2022/02/03 15:34:09;;;;;;;15.45;8.40;;;7.30;99.90;;;5.85;100.00;100677.34;4857558;28;20105;-84
2022/02/03 15:36:46;;;;;;;17.65;8.82;;;7.40;99.90;;;5.86;100.00;100684.28;4929074;28;20037;-85
2022/02/03 15:39:18;;;;;;;16.85;8.27;;;7.30;99.90;;;5.87;100.00;100683.34;4918898;28;20478;-87
2022/02/03 15:41:53;;;;;;;18.38;9.35;;;7.30;99.90;;;5.93;100.00;100677.97;4885518;28;20072;-86
2022/02/03 15:44:19;;;;;;;18.92;9.55;;;7.30;99.90;;;5.94;100.00;100677.13;4911180;28;20031;-85
2022/02/03 16:18:53;;;;;;;21.65;10.95;;;7.40;99.90;;;5.92;100.00;100663.19;4876939;28;20056;-85
2022/02/03 16:40:44;;;;;;;22.85;10.75;;;7.40;99.90;;;5.94;100.00;100677.13;4889584;28;22327;-84
2022/02/03 16:54:13;;;;;;;28.80;15.77;;;;;;;5.95;100.00;100642.22;4994844;28;20112;-87
2022/02/03 16:56:49;;;;;;;28.50;15.43;;;7.40;99.90;;;5.99;100.00;100647.38;4910267;28;20045;-87
2022/02/03 16:59:25;;;;;;;28.48;13.75;;;7.40;99.90;;;5.99;100.00;100626.47;4971956;28;20045;-87
2022/02/03 17:01:51;;;;;;;32.58;14.20;;;7.40;99.90;;;6.02;100.00;100631.59;4931576;28;20045;-86
2022/02/03 17:04:18;;;;;;;31.35;14.93;;;7.40;99.90;;;6.02;100.00;100647.28;4891983;28;20037;-81
2022/02/03 17:06:51;;;;;;;28.00;13.05;;;;;;;6.03;100.00;100644.63;4890149;28;20133;-85
2022/02/03 17:09:17;;;;;;;25.50;12.05;;;7.40;99.90;;;6.02;100.00;100636.81;4929977;28;20050;-85
2022/02/03 17:11:43;;;;;;;26.55;11.88;;;7.50;99.90;;;6.02;100.00;100645.50;4881723;28;20117;-86
2022/02/03 17:14:09;;;;;;;28.48;11.77;;;7.50;99.90;;;6.03;100.00;100628.94;4897109;28;20079;-87
2022/02/03 17:16:35;;;;;;;28.00;11.98;;;7.50;99.90;;;6.08;100.00;100641.88;4903619;28;20072;-87
2022/02/03 17:19:06;;;;;;;28.48;12.10;;;7.50;99.90;;;6.08;100.00;100626.19;4888165;28;20728;-82
2022/02/03 17:21:32;;;;;;;26.40;12.18;;;7.50;99.90;;;6.09;100.00;100627.88;4942918;28;20029;-83
2022/02/03 17:23:58;;;;;;;26.15;11.65;;;7.50;99.90;;;6.08;100.00;100639.25;4939034;28;20042;-82
2022/02/03 17:26:35;;;;;;;28.58;12.75;;;7.50;99.90;;;6.10;100.00;100642.69;4911055;28;20045;-83
2022/02/03 17:29:13;;;;;;;31.15;15.35;;;7.50;99.90;;;6.09;100.00;100636.63;4889402;28;20026;-88
2022/02/03 17:32:01;;;;;;;35.88;19.55;;;7.50;99.90;;;6.05;100.00;100649.81;4895576;28;20227;-88
2022/02/03 18:10:23;;;;;;;47.95;18.85;;;;;;;6.13;100.00;100634.75;4966665;28;20061;-85
2022/02/03 18:36:08;;;;;;;48.75;19.60;;;7.60;99.90;;;6.14;100.00;100599.88;4943013;28;20055;-87
2022/02/03 18:53:09;;;;;;;60.65;21.58;;;;;;;6.21;100.00;100598.78;4903563;28;20162;-87
2022/02/03 19:26:28;;;;;;;78.63;23.92;;;7.70;99.90;;;6.21;100.00;100588.31;4908538;28;20085;-87
2022/02/03 19:29:09;;;;;;;75.82;22.58;;;7.60;99.90;;;6.24;100.00;100585.63;4901100;28;20070;-79
2022/02/03 20:11:50;;;;;;;73.68;23.15;;;7.50;99.90;;;6.06;100.00;100599.22;4948663;28;20053;-77
2022/02/03 20:14:19;;;;;;;63.80;21.60;;;7.50;99.90;;;6.06;100.00;100599.22;4943871;28;20030;-78
2022/02/03 20:16:47;;;;;;;68.00;22.25;;;7.50;99.90;;;6.05;100.00;100598.38;4930265;28;20026;-77
2022/02/03 20:19:14;;;;;;;71.32;21.85;;;7.50;99.90;;;6.02;100.00;100589.78;4925390;28;20029;-84
2022/02/03 20:21:45;;;;;;;68.82;21.50;;;7.50;99.90;;;6.05;100.00;100595.78;4849672;28;20053;-81
2022/02/03 20:24:12;;;;;;;61.33;21.50;;;7.50;99.90;;;6.06;100.00;100581.78;4903280;28;20047;-85
2022/02/03 20:26:41;;;;;;;59.95;22.30;;;7.50;99.90;;;6.07;100.00;100582.63;4908338;28;20045;-85
2022/02/03 20:29:07;;;;;;;55.72;20.98;;;7.50;99.90;;;6.02;100.00;100579.31;4855490;28;20039;-85
2022/02/03 20:31:42;;;;;;;59.13;21.30;;;7.40;99.90;;;5.99;100.00;100588.13;4896218;28;20468;-85
2022/02/03 20:34:08;;;;;;;53.95;19.90;;;7.40;99.90;;;6.02;100.00;100582.78;4915766;28;22639;-83
2022/02/03 20:36:34;;;;;;;59.78;19.25;;;7.50;99.90;;;6.01;100.00;100573.25;4882450;28;24998;-77
2022/02/03 20:39:09;;;;;;;51.65;19.77;;;7.40;99.90;;;6.02;100.00;100580.16;4946928;28;20023;-87
2022/02/03 20:41:35;;;;;;;55.28;20.92;;;7.50;99.90;;;6.03;100.00;100579.28;4881245;28;20031;-86
2022/02/03 20:44:01;;;;;;;51.00;19.90;;;7.50;99.90;;;6.00;100.00;100581.13;4878744;28;20025;-86
2022/02/03 20:46:29;;;;;;;50.17;19.55;;;7.40;99.90;;;5.98;100.00;100588.16;4909132;28;20046;-87
2022/02/03 20:48:58;;;;;;;50.25;19.67;;;7.40;99.90;;;5.97;100.00;100581.22;4894220;28;20030;-82
2022/02/03 20:51:25;;;;;;;56.03;19.48;;;7.40;99.90;;;5.99;100.00;100590.72;4910498;28;20092;-82
2022/02/03 20:53:51;;;;;;;45.20;19.42;;;7.40;99.90;;;6.03;100.00;100581.91;4895106;28;20040;-84
2022/02/03 20:56:19;;;;;;;39.58;17.50;;;7.40;99.90;;;5.98;100.00;100581.16;4907271;28;20108;-83
2022/02/03 20:58:51;;;;;;;50.28;18.77;;;7.40;99.90;;;5.98;100.00;100573.31;4875611;28;20030;-82
2022/02/03 21:01:37;;;;;;;42.38;17.63;;;7.40;99.90;;;5.98;100.00;100572.47;4927768;28;20065;-85
2022/02/03 21:04:25;;;;;;;42.88;18.67;;;7.40;99.90;;;5.94;100.00;100564.72;4912601;28;20036;-84
2022/02/03 21:06:57;;;;;;;42.20;18.27;;;;;;;5.91;100.00;100570.00;4867008;28;20041;-87
2022/02/03 21:09:48;;;;;;;42.92;18.25;;;7.40;99.90;;;5.86;100.00;100548.38;4880796;28;20138;-83
2022/02/03 21:12:18;;;;;;;39.50;17.17;;;7.30;99.90;;;5.81;100.00;100546.81;4896964;28;20037;-86
2022/02/03 21:14:55;;;;;;;42.30;17.80;;;;;;;5.81;100.00;100545.06;4903233;28;20038;-85